Time;durP1;ratioP1;P1;durP2;ratioP2;P2;SDS_P1;SDS_P2;PMS_P1;PMS_P2;Temp;Humidity;BMP_temperature;BMP_pressure;BME280_temperature;BME280_humidity;BME280_pressure;Samples;Min_cycle;Max_cycle;Signal;HPM_P1;HPM_P2
2024/01/27 00:00:25;;;;;;;195.60;53.33;;;4.70;93.80;;;;;;803604;177;26468;-78
2024/01/27 00:02:52;;;;;;;210.80;60.70;;;4.80;94.00;;;;;;803275;177;26479;-77
2024/01/27 00:05:18;;;;;;;347.93;97.50;;;4.80;93.90;;;;;;805506;175;26444;-77
2024/01/27 00:07:45;;;;;;;71.63;22.73;;;4.80;93.90;;;;;;808267;176;26438;-78
2024/01/27 00:10:11;;;;;;;256.93;70.07;;;4.80;93.80;;;;;;808217;177;26429;-79
2024/01/27 00:12:38;;;;;;;167.93;49.27;;;4.80;94.10;;;;;;807848;177;26443;-78
2024/01/27 00:15:05;;;;;;;107.97;35.33;;;4.70;93.90;;;;;;808567;177;26439;-79
2024/01/27 00:17:32;;;;;;;67.83;24.30;;;4.70;93.90;;;;;;806898;177;26450;-79
2024/01/27 00:19:58;;;;;;;88.47;29.33;;;4.80;93.80;;;;;;802301;177;26612;-79
2024/01/27 00:22:25;;;;;;;212.50;53.10;;;4.70;93.70;;;;;;805213;177;26428;-78
2024/01/27 00:24:52;;;;;;;282.93;74.10;;;4.80;93.70;;;;;;803464;177;26454;-79
2024/01/27 00:27:18;;;;;;;232.53;58.83;;;4.80;93.60;;;;;;800087;179;26427;-77
2024/01/27 00:29:45;;;;;;;167.27;45.80;;;4.80;93.70;;;;;;805279;175;26497;-77
2024/01/27 00:32:11;;;;;;;172.57;51.53;;;4.80;93.60;;;;;;798503;177;26488;-78
2024/01/27 00:34:38;;;;;;;77.33;25.23;;;4.80;93.70;;;;;;798933;179;26434;-78
2024/01/27 00:37:05;;;;;;;149.80;47.70;;;4.70;93.80;;;;;;802354;177;26495;-79
2024/01/27 00:39:32;;;;;;;139.30;44.40;;;4.70;93.80;;;;;;806256;177;26489;-78
2024/01/27 00:41:59;;;;;;;176.10;48.63;;;4.60;94.00;;;;;;804449;177;27039;-78
2024/01/27 00:44:25;;;;;;;97.07;29.63;;;4.50;94.10;;;;;;796792;180;26456;-78
2024/01/27 00:46:52;;;;;;;104.57;33.60;;;4.50;94.20;;;;;;801180;178;26434;-78
2024/01/27 00:49:18;;;;;;;79.30;21.97;;;4.60;94.00;;;;;;800772;174;26467;-77
2024/01/27 00:51:45;;;;;;;52.63;16.60;;;4.60;94.00;;;;;;804298;177;26411;-78
2024/01/27 00:54:12;;;;;;;46.10;12.50;;;4.60;94.00;;;;;;802420;177;26432;-79
2024/01/27 00:56:38;;;;;;;93.17;23.20;;;4.60;94.10;;;;;;802190;177;26511;-78
2024/01/27 00:59:05;;;;;;;127.87;37.43;;;4.60;94.10;;;;;;800393;179;27063;-78
2024/01/27 01:01:31;;;;;;;134.93;38.67;;;4.60;94.40;;;;;;799381;179;26990;-76
2024/01/27 01:03:58;;;;;;;48.67;16.37;;;4.60;94.10;;;;;;800185;179;26430;-77
2024/01/27 01:06:25;;;;;;;47.50;12.83;;;4.60;94.20;;;;;;800005;179;27156;-79
2024/01/27 01:08:51;;;;;;;59.07;18.93;;;4.50;94.30;;;;;;800729;179;26449;-78
2024/01/27 01:11:18;;;;;;;41.53;12.40;;;4.50;94.20;;;;;;803427;178;26404;-78
2024/01/27 01:13:44;;;;;;;88.00;26.67;;;4.50;94.40;;;;;;801523;179;26568;-76
2024/01/27 01:16:11;;;;;;;447.67;124.90;;;4.40;94.30;;;;;;804289;175;26482;-77
2024/01/27 01:18:39;;;;;;;471.97;136.37;;;4.40;94.40;;;;;;812610;176;26445;-77
2024/01/27 01:21:05;;;;;;;453.67;131.73;;;4.40;94.70;;;;;;805128;176;26415;-78
2024/01/27 01:23:32;;;;;;;182.93;57.73;;;4.40;94.60;;;;;;804102;174;26419;-77
2024/01/27 01:25:58;;;;;;;111.23;33.70;;;4.40;94.50;;;;;;804175;176;26467;-77
2024/01/27 01:28:25;;;;;;;453.03;140.47;;;4.40;94.50;;;;;;806383;177;26970;-78
2024/01/27 01:30:52;;;;;;;450.03;137.77;;;4.50;94.40;;;;;;805584;177;26481;-79
2024/01/27 01:33:18;;;;;;;498.53;156.03;;;4.40;94.50;;;;;;804983;177;26447;-77
2024/01/27 01:35:45;;;;;;;210.77;65.90;;;4.30;94.60;;;;;;800767;177;26423;-77
2024/01/27 01:38:11;;;;;;;147.60;47.67;;;4.40;94.60;;;;;;799749;178;26459;-76
2024/01/27 01:40:38;;;;;;;94.10;32.83;;;4.40;94.50;;;;;;799906;178;26970;-78
2024/01/27 01:43:05;;;;;;;108.57;34.87;;;4.30;94.50;;;;;;800229;179;26483;-77
2024/01/27 01:45:31;;;;;;;58.23;16.87;;;4.20;94.70;;;;;;798759;179;26988;-78
2024/01/27 01:47:58;;;;;;;90.57;27.60;;;4.30;94.80;;;;;;801695;179;26428;-76
2024/01/27 01:50:24;;;;;;;99.57;29.83;;;4.30;94.70;;;;;;798833;179;26446;-78
2024/01/27 01:52:52;;;;;;;77.03;23.23;;;4.30;94.70;;;;;;800402;179;26425;-78
2024/01/27 01:55:18;;;;;;;72.00;25.07;;;4.20;94.90;;;;;;802498;177;26431;-77
2024/01/27 01:57:44;;;;;;;157.10;48.70;;;4.20;95.00;;;;;;800510;177;26465;-78
2024/01/27 02:00:12;;;;;;;186.63;56.70;;;4.30;94.90;;;;;;802212;177;27037;-78
2024/01/27 02:02:38;;;;;;;119.57;37.47;;;4.30;94.80;;;;;;803051;177;26445;-77
2024/01/27 02:05:05;;;;;;;126.17;37.73;;;4.20;95.00;;;;;;802971;177;26434;-78
2024/01/27 02:07:32;;;;;;;80.80;26.87;;;4.20;95.00;;;;;;800569;177;26457;-78
2024/01/27 02:09:58;;;;;;;48.50;13.97;;;4.10;95.30;;;;;;798414;174;27193;-78
2024/01/27 02:12:25;;;;;;;28.47;9.33;;;4.10;95.20;;;;;;800758;174;26438;-78
2024/01/27 02:14:51;;;;;;;27.40;7.33;;;4.10;95.20;;;;;;798871;178;26472;-77
2024/01/27 02:17:18;;;;;;;32.20;6.70;;;4.10;95.10;;;;;;799793;177;26463;-76
2024/01/27 02:19:45;;;;;;;31.50;7.93;;;4.10;95.20;;;;;;801036;177;26484;-78
2024/01/27 02:22:11;;;;;;;60.93;15.10;;;4.00;95.30;;;;;;804822;177;26969;-78
2024/01/27 02:24:38;;;;;;;82.27;23.57;;;4.00;95.40;;;;;;800740;177;26418;-77
2024/01/27 02:27:05;;;;;;;46.60;11.63;;;4.00;95.30;;;;;;799981;176;26961;-77
2024/01/27 02:29:31;;;;;;;34.33;9.13;;;4.10;95.30;;;;;;807106;175;27006;-76
2024/01/27 02:31:58;;;;;;;33.30;8.40;;;4.00;95.10;;;;;;801624;177;26597;-79
2024/01/27 02:34:24;;;;;;;23.13;5.87;;;3.90;95.50;;;;;;803029;177;26447;-78
2024/01/27 02:36:51;;;;;;;26.73;5.00;;;3.90;95.50;;;;;;806343;177;26418;-78
2024/01/27 02:39:18;;;;;;;31.27;6.93;;;3.90;95.50;;;;;;802655;177;26454;-78
2024/01/27 02:41:45;;;;;;;27.10;6.20;;;3.90;95.50;;;;;;803575;177;26422;-79
2024/01/27 02:44:12;;;;;;;20.40;5.00;;;3.90;95.40;;;;;;808129;177;26415;-78
2024/01/27 02:46:38;;;;;;;36.63;6.83;;;3.70;95.60;;;;;;806980;177;26564;-77
2024/01/27 02:49:05;;;;;;;39.13;9.33;;;3.70;95.80;;;;;;802377;177;26463;-77
2024/01/27 02:51:31;;;;;;;29.90;7.57;;;3.80;96.00;;;;;;801270;177;26466;-77
2024/01/27 02:53:58;;;;;;;25.40;5.93;;;3.70;95.90;;;;;;803814;177;26508;-76
2024/01/27 02:56:25;;;;;;;28.17;7.07;;;3.80;95.90;;;;;;809078;177;26498;-78
2024/01/27 02:58:51;;;;;;;35.83;7.97;;;3.70;95.90;;;;;;801386;177;26729;-77
2024/01/27 03:01:18;;;;;;;25.50;5.70;;;3.80;96.20;;;;;;804391;177;26983;-77
2024/01/27 03:03:44;;;;;;;30.83;6.33;;;3.70;96.20;;;;;;805302;177;26462;-75
2024/01/27 03:06:11;;;;;;;22.40;6.30;;;3.50;96.30;;;;;;802220;177;27064;-77
2024/01/27 03:08:38;;;;;;;31.83;7.63;;;3.40;96.80;;;;;;804517;177;26988;-77
2024/01/27 03:11:04;;;;;;;26.23;6.37;;;3.50;96.90;;;;;;804140;177;26476;-79
2024/01/27 03:13:31;;;;;;;27.03;7.10;;;3.50;97.00;;;;;;804908;177;26427;-76
2024/01/27 03:15:58;;;;;;;28.07;6.30;;;3.50;96.70;;;;;;804333;177;26409;-77
2024/01/27 03:18:25;;;;;;;28.03;7.90;;;3.50;96.60;;;;;;804653;177;26452;-78
2024/01/27 03:20:51;;;;;;;32.83;6.70;;;3.50;96.80;;;;;;804724;177;26451;-78
2024/01/27 03:23:17;;;;;;;36.47;7.07;;;3.40;96.90;;;;;;804663;177;26995;-77
2024/01/27 03:25:44;;;;;;;64.93;16.10;;;3.30;97.10;;;;;;804833;177;26448;-76
2024/01/27 03:28:11;;;;;;;59.23;13.10;;;3.20;97.50;;;;;;798918;176;26450;-78
2024/01/27 03:30:37;;;;;;;30.80;7.70;;;3.20;97.70;;;;;;800614;178;26513;-78
2024/01/27 03:33:06;;;;;;;23.07;6.80;;;3.20;97.90;;;;;;800258;179;26418;-79
2024/01/27 03:35:30;;;;;;;24.97;6.93;;;3.10;97.80;;;;;;800984;178;26428;-76
2024/01/27 03:37:57;;;;;;;27.97;7.70;;;2.90;97.90;;;;;;802889;177;26423;-77
2024/01/27 03:40:24;;;;;;;33.17;7.10;;;2.90;98.20;;;;;;802887;176;26449;-78
2024/01/27 03:42:50;;;;;;;30.37;6.90;;;2.90;98.30;;;;;;806509;177;26429;-78
2024/01/27 03:45:17;;;;;;;29.80;7.80;;;2.90;98.20;;;;;;808956;176;26967;-78
2024/01/27 03:47:43;;;;;;;29.60;6.97;;;3.00;98.40;;;;;;800931;174;26414;-78
2024/01/27 03:50:10;;;;;;;23.07;6.97;;;3.00;98.20;;;;;;802329;177;27125;-78
2024/01/27 03:52:37;;;;;;;23.90;7.50;;;3.10;98.00;;;;;;805973;177;26419;-78
2024/01/27 03:55:05;;;;;;;30.70;7.10;;;3.10;97.90;;;;;;805630;174;26992;-78
2024/01/27 03:57:31;;;;;;;25.90;9.57;;;3.10;97.90;;;;;;798861;175;26981;-78
2024/01/27 03:59:57;;;;;;;33.53;8.83;;;3.10;97.80;;;;;;809321;177;26467;-77
2024/01/27 04:02:24;;;;;;;41.27;7.20;;;3.20;97.80;;;;;;805678;177;26549;-77
2024/01/27 04:04:50;;;;;;;27.47;6.57;;;3.10;97.70;;;;;;808428;177;26482;-77
2024/01/27 04:07:17;;;;;;;35.30;7.43;;;3.20;97.70;;;;;;804924;173;26439;-78
2024/01/27 04:09:43;;;;;;;30.07;6.07;;;3.30;97.60;;;;;;805325;179;26438;-78
2024/01/27 04:12:10;;;;;;;23.57;5.67;;;3.40;97.40;;;;;;803304;177;26418;-76
2024/01/27 04:14:37;;;;;;;45.23;11.57;;;3.40;97.30;;;;;;802909;177;26443;-77
2024/01/27 04:17:03;;;;;;;158.37;38.50;;;3.30;97.30;;;;;;803928;177;26419;-77
2024/01/27 04:19:30;;;;;;;91.27;24.83;;;3.20;97.50;;;;;;800204;177;26439;-77
2024/01/27 04:21:56;;;;;;;53.80;17.10;;;3.30;97.40;;;;;;799562;177;27292;-77
2024/01/27 04:24:23;;;;;;;39.20;9.70;;;3.30;97.30;;;;;;801539;177;26427;-78
2024/01/27 04:26:50;;;;;;;25.13;7.27;;;3.20;97.40;;;;;;804645;177;26994;-76
2024/01/27 04:29:16;;;;;;;26.43;6.73;;;3.10;97.60;;;;;;799575;178;26470;-76
2024/01/27 04:31:43;;;;;;;36.27;7.23;;;3.00;97.70;;;;;;804984;177;26435;-75
2024/01/27 04:34:10;;;;;;;27.73;6.77;;;3.10;97.80;;;;;;803838;177;26430;-77
2024/01/27 04:36:36;;;;;;;20.80;5.90;;;3.20;97.80;;;;;;801225;177;26445;-76
2024/01/27 04:39:04;;;;;;;29.17;6.47;;;3.20;97.50;;;;;;801376;177;26462;-78
2024/01/27 04:41:29;;;;;;;30.57;6.10;;;3.30;97.40;;;;;;801497;177;26433;-77
2024/01/27 04:43:56;;;;;;;26.73;5.83;;;3.20;97.40;;;;;;799923;177;26500;-77
2024/01/27 04:46:22;;;;;;;23.63;6.10;;;3.10;97.60;;;;;;806453;174;26436;-79
2024/01/27 04:48:49;;;;;;;25.03;6.23;;;3.00;97.50;;;;;;801893;179;27007;-78
2024/01/27 04:51:16;;;;;;;26.27;6.33;;;2.80;97.80;;;;;;802779;176;26443;-77
2024/01/27 04:53:42;;;;;;;24.97;6.60;;;2.80;98.40;;;;;;804594;176;28028;-78
2024/01/27 04:56:09;;;;;;;34.10;9.13;;;2.60;98.70;;;;;;807195;177;26447;-75
2024/01/27 04:58:35;;;;;;;30.10;7.33;;;2.60;99.20;;;;;;809379;176;26499;-76
2024/01/27 05:01:02;;;;;;;21.60;6.50;;;2.60;99.80;;;;;;801784;177;26513;-77
2024/01/27 05:03:29;;;;;;;26.87;6.80;;;2.60;99.80;;;;;;803074;177;26487;-77
2024/01/27 05:05:55;;;;;;;26.30;7.20;;;2.40;99.80;;;;;;799383;179;26458;-77
2024/01/27 05:08:22;;;;;;;27.70;7.03;;;2.20;99.80;;;;;;802495;179;26444;-75
2024/01/27 05:10:48;;;;;;;21.07;7.13;;;2.20;99.90;;;;;;794936;174;26462;-80
2024/01/27 05:13:15;;;;;;;26.33;6.80;;;2.20;99.90;;;;;;823597;172;26414;-76
2024/01/27 05:15:42;;;;;;;26.40;6.37;;;2.20;99.90;;;;;;824196;173;26558;-78
2024/01/27 05:18:10;;;;;;;44.57;7.37;;;2.20;99.90;;;;;;788846;179;26469;-80
2024/01/27 05:20:35;;;;;;;24.13;7.23;;;2.10;99.90;;;;;;780455;180;27070;-79
2024/01/27 05:23:01;;;;;;;30.10;6.80;;;2.10;99.90;;;;;;774618;183;26476;-80
2024/01/27 05:25:28;;;;;;;20.73;6.90;;;2.10;99.90;;;;;;777092;183;26493;-77
2024/01/27 05:27:54;;;;;;;27.60;7.47;;;2.10;99.90;;;;;;774327;183;26479;-79
2024/01/27 05:30:21;;;;;;;28.37;6.40;;;2.20;99.90;;;;;;776994;182;26522;-79
2024/01/27 05:32:48;;;;;;;23.33;6.83;;;2.20;99.90;;;;;;810256;177;26441;-81
2024/01/27 05:35:15;;;;;;;22.93;7.47;;;2.10;99.90;;;;;;784993;178;26464;-78
2024/01/27 05:37:41;;;;;;;23.73;6.60;;;2.20;99.90;;;;;;810439;177;26430;-76
2024/01/27 05:40:09;;;;;;;22.90;7.17;;;2.10;99.90;;;;;;806325;174;26971;-78
2024/01/27 05:42:35;;;;;;;30.90;6.20;;;2.10;99.90;;;;;;791321;181;26650;-79
2024/01/27 05:45:01;;;;;;;37.80;7.63;;;2.20;99.90;;;;;;808214;177;26454;-79
2024/01/27 05:47:28;;;;;;;26.83;6.87;;;2.10;99.90;;;;;;775782;183;26700;-79
2024/01/27 05:49:55;;;;;;;32.80;7.03;;;2.10;99.90;;;;;;775468;183;26497;-76
2024/01/27 05:52:22;;;;;;;35.37;8.47;;;2.10;99.90;;;;;;775959;183;26483;-79
2024/01/27 05:54:48;;;;;;;23.27;7.00;;;2.10;99.90;;;;;;810266;177;26421;-79
2024/01/27 05:57:15;;;;;;;20.33;6.77;;;2.10;99.90;;;;;;776180;185;26470;-77
2024/01/27 05:59:42;;;;;;;27.90;6.97;;;2.00;99.90;;;;;;775425;182;26495;-78
2024/01/27 06:02:08;;;;;;;34.07;7.87;;;2.00;99.90;;;;;;777434;183;26499;-76
2024/01/27 06:04:35;;;;;;;19.67;5.90;;;2.00;99.90;;;;;;779823;184;26490;-78
2024/01/27 06:07:01;;;;;;;30.10;6.70;;;2.00;99.90;;;;;;811078;176;26417;-79
2024/01/27 06:09:28;;;;;;;27.67;6.57;;;2.00;99.90;;;;;;776882;183;26498;-77
2024/01/27 06:11:55;;;;;;;33.30;7.93;;;2.00;99.90;;;;;;776315;183;26479;-77
2024/01/27 06:14:21;;;;;;;25.47;7.77;;;1.90;99.90;;;;;;777816;183;26487;-78
2024/01/27 06:16:48;;;;;;;24.27;6.60;;;2.00;99.90;;;;;;776304;183;26479;-78
2024/01/27 06:19:14;;;;;;;32.33;7.03;;;2.00;99.90;;;;;;774883;183;26639;-78
2024/01/27 06:21:41;;;;;;;27.83;6.83;;;2.00;99.90;;;;;;776776;183;26493;-78
2024/01/27 06:24:07;;;;;;;26.27;7.03;;;1.90;99.90;;;;;;807854;177;26440;-79
2024/01/27 06:26:34;;;;;;;24.20;6.80;;;2.00;99.90;;;;;;774910;183;26480;-78
2024/01/27 06:29:02;;;;;;;32.97;8.03;;;1.90;99.90;;;;;;775789;183;26512;-78
2024/01/27 06:31:27;;;;;;;28.67;7.03;;;1.70;99.90;;;;;;775537;183;26525;-77
2024/01/27 06:33:54;;;;;;;36.30;8.17;;;1.80;99.90;;;;;;775523;183;26495;-77
2024/01/27 06:36:24;;;;;;;26.97;7.90;;;1.80;99.90;;;;;;809496;177;26486;-78
2024/01/27 06:38:47;;;;;;;23.20;6.73;;;1.90;99.90;;;;;;787986;181;26525;-76
2024/01/27 06:41:14;;;;;;;29.10;7.90;;;1.80;99.90;;;;;;782397;181;26487;-78
2024/01/27 06:43:40;;;;;;;34.17;8.00;;;1.90;99.90;;;;;;808849;177;26433;-79
2024/01/27 06:46:07;;;;;;;39.87;7.17;;;1.90;99.90;;;;;;773418;183;26516;-78
2024/01/27 06:48:33;;;;;;;29.57;7.90;;;2.00;99.90;;;;;;774707;183;27089;-78
2024/01/27 06:51:00;;;;;;;26.27;6.77;;;1.80;99.90;;;;;;774386;183;27073;-78
2024/01/27 06:53:27;;;;;;;20.07;6.77;;;1.80;99.90;;;;;;808420;177;26458;-76
2024/01/27 06:55:53;;;;;;;37.53;8.23;;;1.70;99.90;;;;;;773677;183;27061;-77
2024/01/27 06:58:20;;;;;;;38.23;8.43;;;1.80;99.90;;;;;;775984;183;26493;-78
2024/01/27 07:00:46;;;;;;;36.97;9.10;;;1.80;99.90;;;;;;772498;183;27094;-78
2024/01/27 07:03:13;;;;;;;29.33;7.03;;;1.80;99.90;;;;;;807735;177;26462;-75
2024/01/27 07:05:40;;;;;;;36.67;8.67;;;1.90;99.90;;;;;;774806;183;27018;-77
2024/01/27 07:08:07;;;;;;;30.33;7.87;;;1.90;99.90;;;;;;772644;183;26636;-78
2024/01/27 07:10:34;;;;;;;31.43;7.00;;;1.80;99.90;;;;;;771348;185;26518;-79
2024/01/27 07:13:00;;;;;;;31.37;6.77;;;1.90;99.90;;;;;;773841;184;26507;-77
2024/01/27 07:15:27;;;;;;;25.43;7.53;;;1.80;99.90;;;;;;779379;182;27875;-79
2024/01/27 07:17:54;;;;;;;28.17;7.67;;;1.80;99.90;;;;;;777227;184;27041;-79
2024/01/27 07:20:20;;;;;;;33.70;6.63;;;1.80;99.90;;;;;;779228;182;26640;-79
2024/01/27 07:22:48;;;;;;;32.47;8.40;;;1.80;99.90;;;;;;776865;183;26672;-78
2024/01/27 07:25:14;;;;;;;28.47;6.60;;;1.80;99.90;;;;;;776233;183;27020;-78
2024/01/27 07:27:41;;;;;;;30.33;6.10;;;1.80;99.90;;;;;;776060;184;26483;-79
2024/01/27 07:30:09;;;;;;;28.50;7.00;;;1.80;99.90;;;;;;774991;183;27139;-77
2024/01/27 07:32:35;;;;;;;22.50;6.20;;;1.80;99.90;;;;;;774707;183;26664;-78
2024/01/27 07:35:01;;;;;;;28.73;6.70;;;1.80;99.90;;;;;;774677;184;26508;-79
2024/01/27 07:37:28;;;;;;;27.57;6.67;;;1.80;99.90;;;;;;807002;177;26604;-78
2024/01/27 07:39:55;;;;;;;24.40;6.87;;;1.80;99.90;;;;;;774491;183;27056;-80
2024/01/27 07:42:21;;;;;;;24.00;6.43;;;1.80;99.90;;;;;;775177;184;26534;-79
2024/01/27 07:44:49;;;;;;;50.70;7.33;;;1.80;99.90;;;;;;807093;178;26972;-79
2024/01/27 07:47:15;;;;;;;37.90;8.00;;;1.80;99.90;;;;;;791355;180;26455;-79
2024/01/27 07:49:41;;;;;;;24.07;6.60;;;1.80;99.90;;;;;;782319;179;26795;-78
2024/01/27 07:52:08;;;;;;;24.30;6.63;;;1.90;99.90;;;;;;779904;181;26545;-78
2024/01/27 07:54:38;;;;;;;32.53;6.87;;;1.80;99.90;;;;;;772675;184;27081;-77
2024/01/27 07:57:02;;;;;;;29.67;7.87;;;1.80;99.90;;;;;;771922;185;26550;-78
2024/01/27 07:59:28;;;;;;;32.07;7.23;;;1.80;99.90;;;;;;773887;185;26633;-76
2024/01/27 08:01:55;;;;;;;26.27;8.47;;;1.90;99.90;;;;;;773257;184;26504;-79
2024/01/27 08:04:21;;;;;;;30.90;7.40;;;1.90;99.90;;;;;;806888;177;26604;-78
2024/01/27 08:06:49;;;;;;;19.77;7.20;;;2.00;99.90;;;;;;775712;183;26511;-79
2024/01/27 08:09:15;;;;;;;31.77;7.33;;;2.00;99.90;;;;;;772946;182;26467;-78
2024/01/27 08:11:42;;;;;;;24.13;7.67;;;2.00;99.90;;;;;;771164;184;26474;-78
2024/01/27 08:14:08;;;;;;;24.00;6.97;;;2.00;99.90;;;;;;772258;185;26610;-78
2024/01/27 08:16:36;;;;;;;26.17;7.63;;;2.00;99.90;;;;;;775460;183;26476;-79
2024/01/27 08:19:02;;;;;;;27.37;7.07;;;2.00;99.90;;;;;;806805;178;26444;-78
2024/01/27 08:21:29;;;;;;;39.20;7.33;;;2.10;99.90;;;;;;775978;184;26604;-80
2024/01/27 08:23:55;;;;;;;34.93;7.47;;;2.10;99.90;;;;;;784721;181;26470;-77
2024/01/27 08:26:22;;;;;;;23.77;7.57;;;2.20;99.90;;;;;;791323;180;26680;-77
2024/01/27 08:28:49;;;;;;;26.47;6.70;;;2.20;99.90;;;;;;789729;180;26478;-78
2024/01/27 08:31:15;;;;;;;25.07;7.13;;;2.30;99.90;;;;;;773253;179;26498;-77
2024/01/27 08:33:42;;;;;;;27.33;7.17;;;2.40;99.90;;;;;;787486;181;26567;-78
2024/01/27 08:36:08;;;;;;;29.63;7.83;;;2.40;99.90;;;;;;811044;176;26469;-78
2024/01/27 08:38:35;;;;;;;20.73;7.03;;;2.50;99.90;;;;;;787743;181;26449;-77
2024/01/27 08:41:02;;;;;;;31.57;7.33;;;2.60;99.90;;;;;;783219;181;26605;-78
2024/01/27 08:43:28;;;;;;;32.97;7.60;;;2.80;99.80;;;;;;775660;183;26611;-78
2024/01/27 08:45:56;;;;;;;27.90;8.07;;;2.80;99.50;;;;;;776542;183;26526;-79
2024/01/27 08:48:21;;;;;;;25.07;6.80;;;2.90;99.60;;;;;;773123;184;26471;-78
2024/01/27 08:50:48;;;;;;;19.37;6.00;;;3.00;99.40;;;;;;774274;183;26528;-77
2024/01/27 08:53:15;;;;;;;30.03;8.23;;;3.10;99.00;;;;;;774265;183;26480;-78
2024/01/27 08:55:41;;;;;;;27.93;8.03;;;3.30;98.50;;;;;;773972;184;26479;-77
2024/01/27 08:58:08;;;;;;;22.47;7.53;;;3.30;98.50;;;;;;780684;183;27012;-78
2024/01/27 09:00:34;;;;;;;32.03;6.67;;;3.40;98.60;;;;;;778895;183;26630;-75
2024/01/27 09:03:02;;;;;;;26.20;7.60;;;3.40;98.60;;;;;;772690;184;26479;-78
2024/01/27 09:05:28;;;;;;;21.43;6.27;;;3.50;98.60;;;;;;769753;186;26486;-78
2024/01/27 09:07:54;;;;;;;31.07;6.80;;;3.40;98.30;;;;;;776502;184;27027;-76
2024/01/27 09:10:21;;;;;;;22.50;6.87;;;3.50;97.70;;;;;;772118;185;26511;-77
2024/01/27 09:12:47;;;;;;;26.17;7.13;;;3.60;97.50;;;;;;774022;184;27055;-77
2024/01/27 09:15:14;;;;;;;36.03;6.83;;;3.60;97.60;;;;;;773763;184;26596;-76
2024/01/27 09:17:42;;;;;;;23.67;8.37;;;3.70;97.70;;;;;;771970;183;26497;-78
2024/01/27 09:20:08;;;;;;;22.00;7.47;;;3.80;97.60;;;;;;771984;185;26487;-78
2024/01/27 09:22:34;;;;;;;28.50;7.17;;;3.90;96.90;;;;;;772141;185;26507;-77
2024/01/27 09:25:01;;;;;;;21.10;6.80;;;4.00;97.10;;;;;;772362;183;26530;-79
2024/01/27 09:27:27;;;;;;;26.27;6.60;;;4.10;96.60;;;;;;772253;183;26494;-78
2024/01/27 09:29:54;;;;;;;35.90;7.13;;;4.20;96.70;;;;;;772833;186;26672;-78
2024/01/27 09:32:20;;;;;;;20.17;7.60;;;4.30;95.70;;;;;;772806;186;26479;-78
2024/01/27 09:34:47;;;;;;;22.83;6.27;;;4.40;95.40;;;;;;775134;184;26511;-74
2024/01/27 09:37:14;;;;;;;25.20;6.93;;;4.50;95.40;;;;;;808890;175;26421;-78
2024/01/27 09:39:41;;;;;;;23.30;7.17;;;4.70;95.60;;;;;;811264;176;26440;-79
2024/01/27 09:42:08;;;;;;;30.73;7.67;;;4.80;94.70;;;;;;794140;180;26485;-77
2024/01/27 09:44:34;;;;;;;27.77;7.47;;;4.90;94.30;;;;;;807913;176;26962;-76
2024/01/27 09:47:00;;;;;;;23.20;7.37;;;5.00;94.20;;;;;;774418;182;26506;-78
2024/01/27 09:49:27;;;;;;;28.83;7.43;;;5.10;94.20;;;;;;774729;183;26669;-78
2024/01/27 09:51:56;;;;;;;24.63;7.57;;;5.20;94.10;;;;;;807339;173;26429;-74
2024/01/27 09:54:20;;;;;;;26.67;8.83;;;5.30;93.00;;;;;;794885;177;26417;-78
2024/01/27 09:56:47;;;;;;;24.47;6.37;;;5.50;93.30;;;;;;774799;184;26507;-78
2024/01/27 09:59:15;;;;;;;17.17;7.03;;;5.60;93.10;;;;;;807457;177;26449;-79
2024/01/27 10:01:40;;;;;;;23.30;7.03;;;5.60;93.30;;;;;;775369;184;28076;-76
2024/01/27 10:04:06;;;;;;;28.80;8.63;;;5.60;92.50;;;;;;808489;174;26429;-77
2024/01/27 10:06:33;;;;;;;25.33;6.60;;;5.70;92.20;;;;;;776039;183;26491;-78
2024/01/27 10:09:00;;;;;;;24.90;8.03;;;5.70;92.30;;;;;;775595;183;26475;-79
2024/01/27 10:11:26;;;;;;;28.07;6.80;;;5.70;92.30;;;;;;776458;183;26498;-80
2024/01/27 10:13:55;;;;;;;27.20;7.57;;;5.70;92.40;;;;;;775486;184;26496;-80
2024/01/27 10:16:21;;;;;;;26.90;8.20;;;5.80;92.10;;;;;;778812;184;26503;-80
2024/01/27 10:18:48;;;;;;;35.53;8.10;;;5.80;91.80;;;;;;775189;184;26460;-81
2024/01/27 10:21:14;;;;;;;25.10;7.97;;;5.90;91.90;;;;;;771858;183;26525;-80
2024/01/27 10:23:41;;;;;;;24.90;7.30;;;5.90;92.70;;;;;;779455;181;26500;-79
2024/01/27 10:26:10;;;;;;;29.73;8.20;;;6.00;92.60;;;;;;771473;185;26492;-78
2024/01/27 10:28:37;;;;;;;28.43;7.20;;;6.00;93.20;;;;;;779148;184;26509;-79
2024/01/27 10:31:12;;;;;;;29.70;8.37;;;6.10;92.10;;;;;;774975;182;26507;-79
2024/01/27 10:33:39;;;;;;;22.07;7.40;;;6.20;91.90;;;;;;773728;185;26488;-79
2024/01/27 10:36:06;;;;;;;25.37;8.87;;;6.20;91.60;;;;;;772840;185;26618;-79
2024/01/27 10:38:37;;;;;;;21.37;8.23;;;6.30;91.50;;;;;;772616;185;26466;-78
2024/01/27 10:41:04;;;;;;;24.43;7.17;;;6.30;91.30;;;;;;802985;176;26442;-80
2024/01/27 10:43:30;;;;;;;27.33;7.63;;;6.20;91.10;;;;;;779822;181;26577;-80
2024/01/27 10:45:57;;;;;;;24.77;7.40;;;6.30;91.60;;;;;;779990;181;27033;-78
2024/01/27 10:48:23;;;;;;;22.13;6.87;;;6.50;91.10;;;;;;788637;180;26457;-78
2024/01/27 10:50:50;;;;;;;19.13;6.50;;;6.50;90.30;;;;;;787535;180;27063;-78
2024/01/27 10:53:24;;;;;;;25.67;8.63;;;6.80;90.90;;;;;;788259;181;26594;-79
2024/01/27 10:55:49;;;;;;;19.97;7.13;;;7.50;90.00;;;;;;773126;183;26480;-78
2024/01/27 10:58:16;;;;;;;25.07;7.40;;;9.10;84.70;;;;;;787168;181;26455;-80
2024/01/27 11:00:42;;;;;;;24.53;6.73;;;10.50;77.50;;;;;;783618;181;26479;-78
2024/01/27 11:03:09;;;;;;;27.87;6.80;;;11.50;71.40;;;;;;788614;181;27054;-79
2024/01/27 11:05:35;;;;;;;21.80;6.87;;;12.40;67.70;;;;;;782426;182;26550;-78
2024/01/27 11:08:02;;;;;;;27.37;7.47;;;12.60;64.50;;;;;;771417;186;26613;-78
2024/01/27 11:10:35;;;;;;;18.67;6.40;;;12.90;61.80;;;;;;792501;177;26509;-77
2024/01/27 11:12:55;;;;;;;22.10;7.20;;;13.00;61.00;;;;;;790831;180;27142;-77
2024/01/27 11:15:22;;;;;;;19.53;7.03;;;12.60;61.00;;;;;;800666;176;26469;-77
2024/01/27 11:17:48;;;;;;;18.10;7.13;;;11.30;65.20;;;;;;785096;179;26576;-77
2024/01/27 11:20:16;;;;;;;18.67;6.90;;;11.50;65.00;;;;;;806014;177;26421;-77
2024/01/27 11:22:43;;;;;;;23.50;7.80;;;12.20;65.50;;;;;;800378;176;26986;-77
2024/01/27 11:25:18;;;;;;;24.57;7.77;;;12.90;62.50;;;;;;807574;177;26410;-77
2024/01/27 11:27:45;;;;;;;27.93;7.43;;;13.50;59.30;;;;;;806890;178;26446;-78
2024/01/27 11:30:23;;;;;;;20.20;6.97;;;14.50;57.70;;;;;;797560;180;26552;-77
2024/01/27 11:32:50;;;;;;;23.03;6.23;;;15.00;55.40;;;;;;806862;177;26434;-78
2024/01/27 11:35:18;;;;;;;22.90;7.57;;;15.20;53.40;;;;;;807775;177;26390;-76
2024/01/27 11:37:45;;;;;;;32.20;9.93;;;15.30;52.80;;;;;;793697;181;26693;-77
2024/01/27 11:40:12;;;;;;;24.73;8.57;;;16.00;50.20;;;;;;806623;178;27035;-77
2024/01/27 11:42:39;;;;;;;25.00;6.77;;;15.90;50.40;;;;;;809454;177;26425;-77
2024/01/27 11:45:06;;;;;;;23.07;7.27;;;15.90;50.70;;;;;;806009;177;26523;-78
2024/01/27 11:47:33;;;;;;;28.27;7.60;;;16.10;51.80;;;;;;807989;176;26392;-76
2024/01/27 11:49:59;;;;;;;23.60;6.93;;;16.30;50.70;;;;;;795351;180;27040;-78
2024/01/27 11:52:26;;;;;;;32.57;14.47;;;16.30;48.70;;;;;;796154;176;26423;-79
2024/01/27 11:54:55;;;;;;;27.57;10.83;;;16.10;47.50;;;;;;807421;177;27026;-77
2024/01/27 11:57:21;;;;;;;32.97;10.23;;;14.60;50.20;;;;;;792625;177;27003;-77
2024/01/27 11:59:48;;;;;;;24.40;9.30;;;13.70;52.70;;;;;;800379;176;26462;-77
2024/01/27 12:02:15;;;;;;;30.33;8.77;;;14.60;55.00;;;;;;800051;176;26964;-77
2024/01/27 12:04:41;;;;;;;27.73;11.23;;;15.30;54.20;;;;;;800580;178;27039;-77
2024/01/27 12:07:09;;;;;;;33.47;6.23;;;16.90;51.30;;;;;;793508;180;26417;-78
2024/01/27 12:09:34;;;;;;;22.40;6.93;;;18.60;40.80;;;;;;807649;177;27005;-78
2024/01/27 12:12:01;;;;;;;29.10;8.80;;;18.60;40.00;;;;;;792674;180;26519;-78
2024/01/27 12:14:28;;;;;;;25.07;7.77;;;18.40;40.20;;;;;;794648;180;26425;-78
2024/01/27 12:16:54;;;;;;;23.57;6.80;;;18.00;41.60;;;;;;809743;176;27034;-77
2024/01/27 12:19:21;;;;;;;26.90;8.73;;;18.40;40.70;;;;;;795219;180;26511;-77
2024/01/27 12:21:48;;;;;;;21.70;8.20;;;17.40;41.30;;;;;;807558;176;26480;-78
2024/01/27 12:24:16;;;;;;;29.40;8.33;;;16.50;43.30;;;;;;809738;176;26444;-77
2024/01/27 12:26:42;;;;;;;24.23;9.50;;;16.20;45.70;;;;;;811493;174;26556;-75
2024/01/27 12:29:09;;;;;;;24.37;7.50;;;16.30;48.30;;;;;;806823;176;26423;-76
2024/01/27 12:31:36;;;;;;;21.27;7.00;;;16.40;49.60;;;;;;789845;180;26429;-79
2024/01/27 12:34:02;;;;;;;22.13;6.60;;;17.10;46.10;;;;;;799396;180;26411;-80
2024/01/27 12:36:29;;;;;;;20.90;6.67;;;17.00;46.60;;;;;;800745;179;26534;-78
2024/01/27 12:38:57;;;;;;;25.50;8.27;;;17.20;47.90;;;;;;795700;177;26449;-78